sensor_id;sensor_type;location;lat;lon;timestamp;temperature;humidity
7654;DHT22;3869;48.406;10.774;2023-02-04T00:00:27;5.30;99.90
7654;DHT22;3869;48.406;10.774;2023-02-04T00:02:56;5.30;99.90
7654;DHT22;3869;48.406;10.774;2023-02-04T00:05:25;5.30;99.90
7654;DHT22;3869;48.406;10.774;2023-02-04T00:07:52;5.30;99.90
7654;DHT22;3869;48.406;10.774;2023-02-04T00:10:20;5.40;99.90
7654;DHT22;3869;48.406;10.774;2023-02-04T00:12:50;5.40;99.90
7654;DHT22;3869;48.406;10.774;2023-02-04T00:15:18;5.40;99.90
7654;DHT22;3869;48.406;10.774;2023-02-04T00:17:46;5.40;99.90
7654;DHT22;3869;48.406;10.774;2023-02-04T00:20:14;5.40;99.90
7654;DHT22;3869;48.406;10.774;2023-02-04T00:22:42;5.40;99.90
7654;DHT22;3869;48.406;10.774;2023-02-04T00:25:10;5.40;99.90
7654;DHT22;3869;48.406;10.774;2023-02-04T00:27:38;5.40;99.90
7654;DHT22;3869;48.406;10.774;2023-02-04T00:30:08;5.30;99.90
7654;DHT22;3869;48.406;10.774;2023-02-04T00:32:37;5.40;99.90
7654;DHT22;3869;48.406;10.774;2023-02-04T00:35:05;5.40;99.90
7654;DHT22;3869;48.406;10.774;2023-02-04T00:37:33;5.30;99.90
7654;DHT22;3869;48.406;10.774;2023-02-04T00:40:01;5.40;99.90
7654;DHT22;3869;48.406;10.774;2023-02-04T00:42:29;5.40;99.90
7654;DHT22;3869;48.406;10.774;2023-02-04T00:44:57;5.40;99.90
7654;DHT22;3869;48.406;10.774;2023-02-04T00:47:26;5.40;99.90
7654;DHT22;3869;48.406;10.774;2023-02-04T00:49:54;5.40;99.90
7654;DHT22;3869;48.406;10.774;2023-02-04T00:52:22;5.40;99.90
7654;DHT22;3869;48.406;10.774;2023-02-04T00:54:50;5.40;99.90
7654;DHT22;3869;48.406;10.774;2023-02-04T00:57:18;5.50;99.90
7654;DHT22;3869;48.406;10.774;2023-02-04T00:59:46;5.50;99.90
7654;DHT22;3869;48.406;10.774;2023-02-04T01:02:15;5.50;99.90
7654;DHT22;3869;48.406;10.774;2023-02-04T01:04:45;5.50;99.90
7654;DHT22;3869;48.406;10.774;2023-02-04T01:07:13;5.60;99.90
7654;DHT22;3869;48.406;10.774;2023-02-04T01:09:41;5.60;99.90
7654;DHT22;3869;48.406;10.774;2023-02-04T01:12:09;5.60;99.90
7654;DHT22;3869;48.406;10.774;2023-02-04T01:14:37;5.60;99.90
7654;DHT22;3869;48.406;10.774;2023-02-04T01:17:05;5.50;99.90
7654;DHT22;3869;48.406;10.774;2023-02-04T01:19:33;5.60;99.90
7654;DHT22;3869;48.406;10.774;2023-02-04T01:22:02;5.60;99.90
7654;DHT22;3869;48.406;10.774;2023-02-04T01:24:30;5.60;99.90
7654;DHT22;3869;48.406;10.774;2023-02-04T01:26:58;5.70;99.90
7654;DHT22;3869;48.406;10.774;2023-02-04T01:29:26;5.70;99.90
7654;DHT22;3869;48.406;10.774;2023-02-04T01:31:54;5.70;99.90
7654;DHT22;3869;48.406;10.774;2023-02-04T01:34:22;5.70;99.90
7654;DHT22;3869;48.406;10.774;2023-02-04T01:36:51;5.70;99.90
7654;DHT22;3869;48.406;10.774;2023-02-04T01:39:20;5.70;99.90
7654;DHT22;3869;48.406;10.774;2023-02-04T01:41:48;5.70;99.90
7654;DHT22;3869;48.406;10.774;2023-02-04T01:44:17;5.70;99.90
7654;DHT22;3869;48.406;10.774;2023-02-04T01:46:45;5.70;99.90
7654;DHT22;3869;48.406;10.774;2023-02-04T01:49:12;5.70;99.90
7654;DHT22;3869;48.406;10.774;2023-02-04T01:51:41;5.70;99.90
7654;DHT22;3869;48.406;10.774;2023-02-04T01:54:11;5.80;99.90
7654;DHT22;3869;48.406;10.774;2023-02-04T01:56:43;5.70;99.90
7654;DHT22;3869;48.406;10.774;2023-02-04T01:59:14;5.70;99.90
7654;DHT22;3869;48.406;10.774;2023-02-04T02:01:44;5.70;99.90
7654;DHT22;3869;48.406;10.774;2023-02-04T02:04:14;5.70;99.90
7654;DHT22;3869;48.406;10.774;2023-02-04T02:06:45;5.70;99.90
7654;DHT22;3869;48.406;10.774;2023-02-04T02:09:15;5.80;99.90
7654;DHT22;3869;48.406;10.774;2023-02-04T02:11:44;5.80;99.90
7654;DHT22;3869;48.406;10.774;2023-02-04T02:14:12;5.80;99.90
7654;DHT22;3869;48.406;10.774;2023-02-04T02:16:40;5.80;99.90
7654;DHT22;3869;48.406;10.774;2023-02-04T02:19:11;5.80;99.90
7654;DHT22;3869;48.406;10.774;2023-02-04T02:21:44;5.80;99.90
7654;DHT22;3869;48.406;10.774;2023-02-04T02:24:28;5.90;99.90
7654;DHT22;3869;48.406;10.774;2023-02-04T02:26:59;5.90;99.90
7654;DHT22;3869;48.406;10.774;2023-02-04T02:29:28;5.90;99.90
7654;DHT22;3869;48.406;10.774;2023-02-04T02:31:57;5.90;99.90
7654;DHT22;3869;48.406;10.774;2023-02-04T02:34:26;5.90;99.90
7654;DHT22;3869;48.406;10.774;2023-02-04T02:36:56;5.90;99.90
7654;DHT22;3869;48.406;10.774;2023-02-04T02:39:24;5.90;99.90
7654;DHT22;3869;48.406;10.774;2023-02-04T02:41:54;5.90;99.90
7654;DHT22;3869;48.406;10.774;2023-02-04T02:44:23;5.90;99.90
7654;DHT22;3869;48.406;10.774;2023-02-04T02:46:52;5.90;99.90
7654;DHT22;3869;48.406;10.774;2023-02-04T02:49:21;5.90;99.90
7654;DHT22;3869;48.406;10.774;2023-02-04T02:51:49;5.80;99.90
7654;DHT22;3869;48.406;10.774;2023-02-04T02:54:21;5.80;99.90
7654;DHT22;3869;48.406;10.774;2023-02-04T02:56:50;5.80;99.90
7654;DHT22;3869;48.406;10.774;2023-02-04T02:59:19;5.70;99.90
7654;DHT22;3869;48.406;10.774;2023-02-04T03:01:50;5.70;99.90
7654;DHT22;3869;48.406;10.774;2023-02-04T03:04:20;5.60;99.90
7654;DHT22;3869;48.406;10.774;2023-02-04T03:06:48;5.50;99.90
7654;DHT22;3869;48.406;10.774;2023-02-04T03:09:17;5.40;99.90
7654;DHT22;3869;48.406;10.774;2023-02-04T03:11:46;5.30;99.90
7654;DHT22;3869;48.406;10.774;2023-02-04T03:14:14;5.20;99.90
7654;DHT22;3869;48.406;10.774;2023-02-04T03:16:43;5.10;99.90
7654;DHT22;3869;48.406;10.774;2023-02-04T03:19:12;5.10;99.90
7654;DHT22;3869;48.406;10.774;2023-02-04T03:21:40;5.10;99.90
7654;DHT22;3869;48.406;10.774;2023-02-04T03:24:09;5.00;99.90
7654;DHT22;3869;48.406;10.774;2023-02-04T03:26:37;5.00;99.90
7654;DHT22;3869;48.406;10.774;2023-02-04T03:29:06;4.90;99.90
7654;DHT22;3869;48.406;10.774;2023-02-04T03:31:34;4.90;99.90
7654;DHT22;3869;48.406;10.774;2023-02-04T03:34:05;4.80;99.90
7654;DHT22;3869;48.406;10.774;2023-02-04T03:36:33;4.80;99.90
7654;DHT22;3869;48.406;10.774;2023-02-04T03:39:02;4.70;99.90
7654;DHT22;3869;48.406;10.774;2023-02-04T03:41:30;4.70;99.90
7654;DHT22;3869;48.406;10.774;2023-02-04T03:43:58;4.60;99.90
7654;DHT22;3869;48.406;10.774;2023-02-04T03:46:26;4.60;99.90
7654;DHT22;3869;48.406;10.774;2023-02-04T03:48:54;4.60;99.90
7654;DHT22;3869;48.406;10.774;2023-02-04T03:51:23;4.60;99.90
7654;DHT22;3869;48.406;10.774;2023-02-04T03:53:52;4.60;99.90
7654;DHT22;3869;48.406;10.774;2023-02-04T03:56:19;4.60;99.90
7654;DHT22;3869;48.406;10.774;2023-02-04T03:58:47;4.50;99.90
7654;DHT22;3869;48.406;10.774;2023-02-04T04:01:15;4.50;99.90
7654;DHT22;3869;48.406;10.774;2023-02-04T04:03:43;4.50;99.90
7654;DHT22;3869;48.406;10.774;2023-02-04T04:06:11;4.50;99.90
7654;DHT22;3869;48.406;10.774;2023-02-04T04:08:40;4.50;99.90
7654;DHT22;3869;48.406;10.774;2023-02-04T04:11:08;4.50;99.90
7654;DHT22;3869;48.406;10.774;2023-02-04T04:13:36;4.50;99.90
7654;DHT22;3869;48.406;10.774;2023-02-04T04:16:05;4.40;99.90
7654;DHT22;3869;48.406;10.774;2023-02-04T04:18:34;4.40;99.90
7654;DHT22;3869;48.406;10.774;2023-02-04T04:21:03;4.40;99.90
7654;DHT22;3869;48.406;10.774;2023-02-04T04:23:31;4.40;99.90
7654;DHT22;3869;48.406;10.774;2023-02-04T04:26:00;4.40;99.90
7654;DHT22;3869;48.406;10.774;2023-02-04T04:28:28;4.30;99.90
7654;DHT22;3869;48.406;10.774;2023-02-04T04:30:56;4.30;99.90
7654;DHT22;3869;48.406;10.774;2023-02-04T04:33:24;4.30;99.90
7654;DHT22;3869;48.406;10.774;2023-02-04T04:35:51;4.30;99.90
7654;DHT22;3869;48.406;10.774;2023-02-04T04:38:19;4.30;99.90
7654;DHT22;3869;48.406;10.774;2023-02-04T04:40:47;4.20;99.90
7654;DHT22;3869;48.406;10.774;2023-02-04T04:43:17;4.20;99.90
7654;DHT22;3869;48.406;10.774;2023-02-04T04:45:45;4.20;99.90
7654;DHT22;3869;48.406;10.774;2023-02-04T04:48:13;4.20;99.90
7654;DHT22;3869;48.406;10.774;2023-02-04T04:50:41;4.20;99.90
7654;DHT22;3869;48.406;10.774;2023-02-04T04:53:09;4.20;99.90
7654;DHT22;3869;48.406;10.774;2023-02-04T04:55:37;4.10;99.90
7654;DHT22;3869;48.406;10.774;2023-02-04T04:58:06;4.10;99.90
7654;DHT22;3869;48.406;10.774;2023-02-04T05:00:36;4.10;99.90
7654;DHT22;3869;48.406;10.774;2023-02-04T05:03:04;4.00;99.90
7654;DHT22;3869;48.406;10.774;2023-02-04T05:05:32;4.00;99.90
7654;DHT22;3869;48.406;10.774;2023-02-04T05:08:05;4.00;99.90
7654;DHT22;3869;48.406;10.774;2023-02-04T05:10:36;4.00;99.90
7654;DHT22;3869;48.406;10.774;2023-02-04T05:13:04;3.90;99.90
7654;DHT22;3869;48.406;10.774;2023-02-04T05:15:32;3.90;99.90
7654;DHT22;3869;48.406;10.774;2023-02-04T05:18:01;3.90;99.90
7654;DHT22;3869;48.406;10.774;2023-02-04T05:20:29;3.90;99.90
7654;DHT22;3869;48.406;10.774;2023-02-04T05:22:58;3.90;99.90
7654;DHT22;3869;48.406;10.774;2023-02-04T05:25:27;3.80;99.90
7654;DHT22;3869;48.406;10.774;2023-02-04T05:27:55;3.80;99.90
7654;DHT22;3869;48.406;10.774;2023-02-04T05:30:23;3.80;99.90
7654;DHT22;3869;48.406;10.774;2023-02-04T05:32:51;3.80;99.90
7654;DHT22;3869;48.406;10.774;2023-02-04T05:35:20;3.80;99.90
7654;DHT22;3869;48.406;10.774;2023-02-04T05:37:48;3.90;99.90
7654;DHT22;3869;48.406;10.774;2023-02-04T05:40:16;3.80;99.90
7654;DHT22;3869;48.406;10.774;2023-02-04T05:42:44;3.80;99.90
7654;DHT22;3869;48.406;10.774;2023-02-04T05:45:14;3.70;99.90
7654;DHT22;3869;48.406;10.774;2023-02-04T05:47:42;3.70;99.90
7654;DHT22;3869;48.406;10.774;2023-02-04T05:50:10;3.60;99.90
7654;DHT22;3869;48.406;10.774;2023-02-04T05:52:39;3.60;99.90
7654;DHT22;3869;48.406;10.774;2023-02-04T05:55:09;3.60;99.90
7654;DHT22;3869;48.406;10.774;2023-02-04T05:57:37;3.60;99.90
7654;DHT22;3869;48.406;10.774;2023-02-04T06:00:07;3.60;99.90
7654;DHT22;3869;48.406;10.774;2023-02-04T06:02:36;3.60;99.90
7654;DHT22;3869;48.406;10.774;2023-02-04T06:05:04;3.60;99.90
7654;DHT22;3869;48.406;10.774;2023-02-04T06:07:32;3.60;99.90
7654;DHT22;3869;48.406;10.774;2023-02-04T06:10:01;3.60;99.90
7654;DHT22;3869;48.406;10.774;2023-02-04T06:12:29;3.60;99.90
7654;DHT22;3869;48.406;10.774;2023-02-04T06:14:57;3.70;99.90
7654;DHT22;3869;48.406;10.774;2023-02-04T06:17:25;3.70;99.90
7654;DHT22;3869;48.406;10.774;2023-02-04T06:19:53;3.70;99.90
7654;DHT22;3869;48.406;10.774;2023-02-04T06:22:21;3.70;99.90
7654;DHT22;3869;48.406;10.774;2023-02-04T06:24:50;3.60;99.90
7654;DHT22;3869;48.406;10.774;2023-02-04T06:27:19;3.50;99.90
7654;DHT22;3869;48.406;10.774;2023-02-04T06:29:50;3.40;99.90
7654;DHT22;3869;48.406;10.774;2023-02-04T06:32:19;3.40;99.90
7654;DHT22;3869;48.406;10.774;2023-02-04T06:34:47;3.40;99.90
7654;DHT22;3869;48.406;10.774;2023-02-04T06:37:15;3.40;99.90
7654;DHT22;3869;48.406;10.774;2023-02-04T06:39:43;3.50;99.90
7654;DHT22;3869;48.406;10.774;2023-02-04T06:42:11;3.50;99.90
7654;DHT22;3869;48.406;10.774;2023-02-04T06:44:40;3.60;99.90
7654;DHT22;3869;48.406;10.774;2023-02-04T06:47:08;3.60;99.90
7654;DHT22;3869;48.406;10.774;2023-02-04T06:49:36;3.60;99.90
7654;DHT22;3869;48.406;10.774;2023-02-04T06:52:04;3.50;99.90
7654;DHT22;3869;48.406;10.774;2023-02-04T06:54:32;3.40;99.90
7654;DHT22;3869;48.406;10.774;2023-02-04T06:57:00;3.30;99.90
7654;DHT22;3869;48.406;10.774;2023-02-04T06:59:32;3.30;99.90
7654;DHT22;3869;48.406;10.774;2023-02-04T07:02:02;3.40;99.90
7654;DHT22;3869;48.406;10.774;2023-02-04T07:04:30;3.60;99.90
7654;DHT22;3869;48.406;10.774;2023-02-04T07:06:58;3.80;99.90
7654;DHT22;3869;48.406;10.774;2023-02-04T07:09:26;4.10;99.90
7654;DHT22;3869;48.406;10.774;2023-02-04T07:11:54;4.30;99.90
7654;DHT22;3869;48.406;10.774;2023-02-04T07:14:22;4.30;99.90
7654;DHT22;3869;48.406;10.774;2023-02-04T07:16:50;4.30;99.90
7654;DHT22;3869;48.406;10.774;2023-02-04T07:19:19;4.30;99.90
7654;DHT22;3869;48.406;10.774;2023-02-04T07:21:47;4.20;99.90
7654;DHT22;3869;48.406;10.774;2023-02-04T07:24:19;4.20;99.90
7654;DHT22;3869;48.406;10.774;2023-02-04T07:26:47;4.20;99.90
7654;DHT22;3869;48.406;10.774;2023-02-04T07:29:15;4.20;99.90
7654;DHT22;3869;48.406;10.774;2023-02-04T07:31:51;4.10;99.90
7654;DHT22;3869;48.406;10.774;2023-02-04T07:34:21;4.10;99.90
7654;DHT22;3869;48.406;10.774;2023-02-04T07:36:49;4.20;99.90
7654;DHT22;3869;48.406;10.774;2023-02-04T07:39:17;4.20;99.90
7654;DHT22;3869;48.406;10.774;2023-02-04T07:41:45;4.20;99.90
7654;DHT22;3869;48.406;10.774;2023-02-04T07:44:12;4.20;99.90
7654;DHT22;3869;48.406;10.774;2023-02-04T07:46:40;4.30;99.90
7654;DHT22;3869;48.406;10.774;2023-02-04T07:49:08;4.30;99.90
7654;DHT22;3869;48.406;10.774;2023-02-04T07:51:38;4.30;99.90
7654;DHT22;3869;48.406;10.774;2023-02-04T07:54:06;4.30;99.90
7654;DHT22;3869;48.406;10.774;2023-02-04T07:56:33;4.40;99.90
7654;DHT22;3869;48.406;10.774;2023-02-04T07:59:01;4.50;99.90
7654;DHT22;3869;48.406;10.774;2023-02-04T08:01:29;4.50;99.90
7654;DHT22;3869;48.406;10.774;2023-02-04T08:03:57;4.50;99.90
7654;DHT22;3869;48.406;10.774;2023-02-04T08:06:25;4.60;99.90
7654;DHT22;3869;48.406;10.774;2023-02-04T08:08:54;4.60;99.90
7654;DHT22;3869;48.406;10.774;2023-02-04T08:11:22;4.70;99.90
7654;DHT22;3869;48.406;10.774;2023-02-04T08:13:52;4.70;99.90
7654;DHT22;3869;48.406;10.774;2023-02-04T08:16:20;4.70;99.90
7654;DHT22;3869;48.406;10.774;2023-02-04T08:18:48;4.80;99.90
7654;DHT22;3869;48.406;10.774;2023-02-04T08:21:16;4.80;99.90
7654;DHT22;3869;48.406;10.774;2023-02-04T08:23:45;4.90;99.90
7654;DHT22;3869;48.406;10.774;2023-02-04T08:26:14;5.00;99.90
7654;DHT22;3869;48.406;10.774;2023-02-04T08:28:42;5.10;99.90
7654;DHT22;3869;48.406;10.774;2023-02-04T08:31:10;5.10;99.90
7654;DHT22;3869;48.406;10.774;2023-02-04T08:33:38;5.20;99.90
7654;DHT22;3869;48.406;10.774;2023-02-04T08:36:06;5.30;99.90
7654;DHT22;3869;48.406;10.774;2023-02-04T08:38:34;5.40;99.90
7654;DHT22;3869;48.406;10.774;2023-02-04T08:41:03;5.50;99.90
7654;DHT22;3869;48.406;10.774;2023-02-04T08:43:32;5.50;99.90
7654;DHT22;3869;48.406;10.774;2023-02-04T08:46:00;5.60;99.90
7654;DHT22;3869;48.406;10.774;2023-02-04T08:48:28;5.60;99.90
7654;DHT22;3869;48.406;10.774;2023-02-04T08:50:56;5.70;99.90
7654;DHT22;3869;48.406;10.774;2023-02-04T08:53:24;5.70;99.90
7654;DHT22;3869;48.406;10.774;2023-02-04T08:55:52;5.70;99.90
7654;DHT22;3869;48.406;10.774;2023-02-04T08:58:20;5.70;99.90
7654;DHT22;3869;48.406;10.774;2023-02-04T09:00:49;5.60;99.90
7654;DHT22;3869;48.406;10.774;2023-02-04T09:03:17;5.60;99.90
7654;DHT22;3869;48.406;10.774;2023-02-04T09:05:45;5.60;99.90
7654;DHT22;3869;48.406;10.774;2023-02-04T09:08:13;5.60;99.90
7654;DHT22;3869;48.406;10.774;2023-02-04T09:10:41;5.50;99.90
7654;DHT22;3869;48.406;10.774;2023-02-04T09:13:09;5.60;99.90
7654;DHT22;3869;48.406;10.774;2023-02-04T09:15:37;5.60;99.90
7654;DHT22;3869;48.406;10.774;2023-02-04T09:18:06;5.60;99.90
7654;DHT22;3869;48.406;10.774;2023-02-04T09:20:42;5.70;99.90
7654;DHT22;3869;48.406;10.774;2023-02-04T09:23:10;5.70;99.90
7654;DHT22;3869;48.406;10.774;2023-02-04T09:25:38;5.70;99.90
7654;DHT22;3869;48.406;10.774;2023-02-04T09:28:07;5.60;99.90
7654;DHT22;3869;48.406;10.774;2023-02-04T09:30:37;5.70;99.90
7654;DHT22;3869;48.406;10.774;2023-02-04T09:33:07;5.80;99.90
7654;DHT22;3869;48.406;10.774;2023-02-04T09:35:35;5.80;99.90
7654;DHT22;3869;48.406;10.774;2023-02-04T09:38:04;5.90;99.90
7654;DHT22;3869;48.406;10.774;2023-02-04T09:40:35;5.90;99.90
7654;DHT22;3869;48.406;10.774;2023-02-04T09:43:04;5.90;99.90
7654;DHT22;3869;48.406;10.774;2023-02-04T09:45:34;5.80;99.90
7654;DHT22;3869;48.406;10.774;2023-02-04T09:48:04;5.90;99.90
7654;DHT22;3869;48.406;10.774;2023-02-04T09:50:37;6.00;99.90
7654;DHT22;3869;48.406;10.774;2023-02-04T09:53:05;5.90;99.90
7654;DHT22;3869;48.406;10.774;2023-02-04T09:55:37;5.90;99.90
7654;DHT22;3869;48.406;10.774;2023-02-04T09:58:11;5.70;99.90
7654;DHT22;3869;48.406;10.774;2023-02-04T10:00:41;5.70;99.90
7654;DHT22;3869;48.406;10.774;2023-02-04T10:03:13;5.70;99.90
7654;DHT22;3869;48.406;10.774;2023-02-04T10:05:44;5.70;99.90
7654;DHT22;3869;48.406;10.774;2023-02-04T10:08:14;5.70;99.90
7654;DHT22;3869;48.406;10.774;2023-02-04T10:10:43;5.80;99.90
7654;DHT22;3869;48.406;10.774;2023-02-04T10:13:16;5.80;99.90
7654;DHT22;3869;48.406;10.774;2023-02-04T10:15:45;5.80;99.90
7654;DHT22;3869;48.406;10.774;2023-02-04T10:18:26;5.80;99.90
7654;DHT22;3869;48.406;10.774;2023-02-04T10:21:07;5.90;99.90
7654;DHT22;3869;48.406;10.774;2023-02-04T10:23:35;5.90;99.90
7654;DHT22;3869;48.406;10.774;2023-02-04T10:26:03;6.10;99.90
7654;DHT22;3869;48.406;10.774;2023-02-04T10:28:32;6.10;99.90
7654;DHT22;3869;48.406;10.774;2023-02-04T10:31:01;5.90;99.90
7654;DHT22;3869;48.406;10.774;2023-02-04T10:33:29;5.90;99.90
7654;DHT22;3869;48.406;10.774;2023-02-04T10:35:58;6.00;99.90
7654;DHT22;3869;48.406;10.774;2023-02-04T10:38:26;5.80;99.90
7654;DHT22;3869;48.406;10.774;2023-02-04T10:41:01;5.80;99.90
7654;DHT22;3869;48.406;10.774;2023-02-04T10:43:29;5.70;99.90
7654;DHT22;3869;48.406;10.774;2023-02-04T10:46:00;5.50;99.90
7654;DHT22;3869;48.406;10.774;2023-02-04T10:48:29;5.50;99.90
7654;DHT22;3869;48.406;10.774;2023-02-04T10:51:09;5.50;99.90
7654;DHT22;3869;48.406;10.774;2023-02-04T10:53:39;5.40;99.90
7654;DHT22;3869;48.406;10.774;2023-02-04T10:56:24;5.30;99.90
7654;DHT22;3869;48.406;10.774;2023-02-04T10:58:52;5.40;99.90
7654;DHT22;3869;48.406;10.774;2023-02-04T11:01:20;5.40;99.90
7654;DHT22;3869;48.406;10.774;2023-02-04T11:03:48;5.50;99.90
7654;DHT22;3869;48.406;10.774;2023-02-04T11:06:22;5.50;99.90
7654;DHT22;3869;48.406;10.774;2023-02-04T11:08:50;5.30;99.90
7654;DHT22;3869;48.406;10.774;2023-02-04T11:11:22;5.30;99.90
7654;DHT22;3869;48.406;10.774;2023-02-04T11:13:59;5.30;99.90
7654;DHT22;3869;48.406;10.774;2023-02-04T11:16:29;5.20;99.90
7654;DHT22;3869;48.406;10.774;2023-02-04T11:19:00;5.10;99.90
7654;DHT22;3869;48.406;10.774;2023-02-04T11:21:42;5.20;99.90
7654;DHT22;3869;48.406;10.774;2023-02-04T11:24:24;5.20;99.90
7654;DHT22;3869;48.406;10.774;2023-02-04T11:27:05;5.10;99.90
7654;DHT22;3869;48.406;10.774;2023-02-04T11:29:34;5.30;99.90
7654;DHT22;3869;48.406;10.774;2023-02-04T11:32:05;5.30;99.90
7654;DHT22;3869;48.406;10.774;2023-02-04T11:34:47;5.40;99.90
7654;DHT22;3869;48.406;10.774;2023-02-04T11:37:38;5.30;99.90
7654;DHT22;3869;48.406;10.774;2023-02-04T11:40:26;5.20;99.90
7654;DHT22;3869;48.406;10.774;2023-02-04T11:43:02;5.10;99.90
7654;DHT22;3869;48.406;10.774;2023-02-04T11:45:33;5.10;99.90
7654;DHT22;3869;48.406;10.774;2023-02-04T11:48:09;5.10;99.90
7654;DHT22;3869;48.406;10.774;2023-02-04T11:50:38;5.10;99.90
7654;DHT22;3869;48.406;10.774;2023-02-04T11:53:10;5.10;99.90
7654;DHT22;3869;48.406;10.774;2023-02-04T11:55:43;5.20;99.90
7654;DHT22;3869;48.406;10.774;2023-02-04T11:58:14;5.10;99.90
7654;DHT22;3869;48.406;10.774;2023-02-04T12:00:43;5.10;99.90
7654;DHT22;3869;48.406;10.774;2023-02-04T12:03:23;5.20;99.90
7654;DHT22;3869;48.406;10.774;2023-02-04T12:05:52;5.30;99.90
7654;DHT22;3869;48.406;10.774;2023-02-04T12:08:30;5.50;99.90
7654;DHT22;3869;48.406;10.774;2023-02-04T12:11:02;5.60;99.90
7654;DHT22;3869;48.406;10.774;2023-02-04T12:13:31;5.50;99.90
7654;DHT22;3869;48.406;10.774;2023-02-04T12:16:00;5.50;99.90
7654;DHT22;3869;48.406;10.774;2023-02-04T12:18:29;5.20;99.90
7654;DHT22;3869;48.406;10.774;2023-02-04T12:20:58;5.10;99.90
7654;DHT22;3869;48.406;10.774;2023-02-04T12:23:28;5.00;99.90
7654;DHT22;3869;48.406;10.774;2023-02-04T12:25:56;5.00;99.90
7654;DHT22;3869;48.406;10.774;2023-02-04T12:28:25;5.00;99.90
7654;DHT22;3869;48.406;10.774;2023-02-04T12:30:53;5.10;99.90
7654;DHT22;3869;48.406;10.774;2023-02-04T12:33:21;5.30;99.90
7654;DHT22;3869;48.406;10.774;2023-02-04T12:35:50;5.30;99.90
7654;DHT22;3869;48.406;10.774;2023-02-04T12:38:18;5.40;99.90
7654;DHT22;3869;48.406;10.774;2023-02-04T12:40:47;5.40;99.90
7654;DHT22;3869;48.406;10.774;2023-02-04T12:43:15;5.40;99.90
7654;DHT22;3869;48.406;10.774;2023-02-04T12:45:43;5.40;99.90
7654;DHT22;3869;48.406;10.774;2023-02-04T12:48:15;5.30;99.90
7654;DHT22;3869;48.406;10.774;2023-02-04T12:50:43;5.30;99.90
7654;DHT22;3869;48.406;10.774;2023-02-04T12:53:11;5.20;99.90
7654;DHT22;3869;48.406;10.774;2023-02-04T12:55:39;5.20;99.90
7654;DHT22;3869;48.406;10.774;2023-02-04T12:58:08;5.10;99.90
7654;DHT22;3869;48.406;10.774;2023-02-04T13:00:36;5.10;99.90
7654;DHT22;3869;48.406;10.774;2023-02-04T13:03:04;5.20;99.90
7654;DHT22;3869;48.406;10.774;2023-02-04T13:05:32;5.20;99.90
7654;DHT22;3869;48.406;10.774;2023-02-04T13:08:01;5.20;99.90
7654;DHT22;3869;48.406;10.774;2023-02-04T13:10:29;5.20;99.90
7654;DHT22;3869;48.406;10.774;2023-02-04T13:12:57;5.10;99.90
7654;DHT22;3869;48.406;10.774;2023-02-04T13:15:29;5.20;99.90
7654;DHT22;3869;48.406;10.774;2023-02-04T13:17:58;5.20;99.90
7654;DHT22;3869;48.406;10.774;2023-02-04T13:20:26;5.30;99.90
7654;DHT22;3869;48.406;10.774;2023-02-04T13:22:53;5.30;99.90
7654;DHT22;3869;48.406;10.774;2023-02-04T13:25:21;5.30;99.90
7654;DHT22;3869;48.406;10.774;2023-02-04T13:27:49;5.30;99.90
7654;DHT22;3869;48.406;10.774;2023-02-04T13:30:17;5.30;99.90
7654;DHT22;3869;48.406;10.774;2023-02-04T13:32:47;5.20;99.90
7654;DHT22;3869;48.406;10.774;2023-02-04T13:35:15;5.20;99.90
7654;DHT22;3869;48.406;10.774;2023-02-04T13:37:43;5.20;99.90
7654;DHT22;3869;48.406;10.774;2023-02-04T13:40:11;5.20;99.90
7654;DHT22;3869;48.406;10.774;2023-02-04T13:42:39;5.30;99.90
7654;DHT22;3869;48.406;10.774;2023-02-04T13:45:09;5.30;99.90
7654;DHT22;3869;48.406;10.774;2023-02-04T13:47:38;5.20;99.90
7654;DHT22;3869;48.406;10.774;2023-02-04T13:50:08;5.20;99.90
7654;DHT22;3869;48.406;10.774;2023-02-04T13:52:36;5.10;99.90
7654;DHT22;3869;48.406;10.774;2023-02-04T13:55:04;5.10;99.90
7654;DHT22;3869;48.406;10.774;2023-02-04T13:57:32;5.00;99.90
7654;DHT22;3869;48.406;10.774;2023-02-04T14:00:00;5.00;99.90
7654;DHT22;3869;48.406;10.774;2023-02-04T14:02:28;4.90;99.90
7654;DHT22;3869;48.406;10.774;2023-02-04T14:04:56;4.80;99.90
7654;DHT22;3869;48.406;10.774;2023-02-04T14:07:25;4.70;99.90
7654;DHT22;3869;48.406;10.774;2023-02-04T14:09:53;4.70;99.90
7654;DHT22;3869;48.406;10.774;2023-02-04T14:12:21;4.70;99.90
7654;DHT22;3869;48.406;10.774;2023-02-04T14:14:49;4.80;99.90
7654;DHT22;3869;48.406;10.774;2023-02-04T14:17:17;4.90;99.90
7654;DHT22;3869;48.406;10.774;2023-02-04T14:19:45;4.90;99.90
7654;DHT22;3869;48.406;10.774;2023-02-04T14:22:13;5.10;99.90
7654;DHT22;3869;48.406;10.774;2023-02-04T14:24:42;5.20;99.90
7654;DHT22;3869;48.406;10.774;2023-02-04T14:27:10;5.30;99.90
7654;DHT22;3869;48.406;10.774;2023-02-04T14:29:38;5.30;99.90
7654;DHT22;3869;48.406;10.774;2023-02-04T14:32:06;5.50;99.90
7654;DHT22;3869;48.406;10.774;2023-02-04T14:34:34;5.60;99.90
7654;DHT22;3869;48.406;10.774;2023-02-04T14:37:02;5.70;99.90
7654;DHT22;3869;48.406;10.774;2023-02-04T14:39:30;5.90;99.90
7654;DHT22;3869;48.406;10.774;2023-02-04T14:41:59;6.20;99.90
7654;DHT22;3869;48.406;10.774;2023-02-04T14:44:30;6.20;99.90
7654;DHT22;3869;48.406;10.774;2023-02-04T14:46:58;6.20;99.90
7654;DHT22;3869;48.406;10.774;2023-02-04T14:49:25;6.30;99.90
7654;DHT22;3869;48.406;10.774;2023-02-04T14:51:53;6.00;99.90
7654;DHT22;3869;48.406;10.774;2023-02-04T14:54:22;5.90;99.90
7654;DHT22;3869;48.406;10.774;2023-02-04T14:56:50;5.90;99.90
7654;DHT22;3869;48.406;10.774;2023-02-04T14:59:19;5.80;99.90
7654;DHT22;3869;48.406;10.774;2023-02-04T15:01:47;5.70;99.90
7654;DHT22;3869;48.406;10.774;2023-02-04T15:04:15;5.60;99.90
7654;DHT22;3869;48.406;10.774;2023-02-04T15:06:44;5.50;99.90
7654;DHT22;3869;48.406;10.774;2023-02-04T15:09:12;5.30;99.90
7654;DHT22;3869;48.406;10.774;2023-02-04T15:11:40;5.20;99.90
7654;DHT22;3869;48.406;10.774;2023-02-04T15:14:08;5.20;99.90
7654;DHT22;3869;48.406;10.774;2023-02-04T15:16:37;5.20;99.90
7654;DHT22;3869;48.406;10.774;2023-02-04T15:19:07;5.10;99.90
7654;DHT22;3869;48.406;10.774;2023-02-04T15:21:35;5.10;99.90
7654;DHT22;3869;48.406;10.774;2023-02-04T15:24:03;5.20;99.90
7654;DHT22;3869;48.406;10.774;2023-02-04T15:26:31;5.30;99.90
7654;DHT22;3869;48.406;10.774;2023-02-04T15:28:59;5.30;99.90
7654;DHT22;3869;48.406;10.774;2023-02-04T15:31:27;5.30;99.90
7654;DHT22;3869;48.406;10.774;2023-02-04T15:33:56;5.30;99.90
7654;DHT22;3869;48.406;10.774;2023-02-04T15:36:24;5.30;99.90
7654;DHT22;3869;48.406;10.774;2023-02-04T15:38:52;5.00;99.90
7654;DHT22;3869;48.406;10.774;2023-02-04T15:41:20;4.90;99.90
7654;DHT22;3869;48.406;10.774;2023-02-04T15:43:49;4.80;99.90
7654;DHT22;3869;48.406;10.774;2023-02-04T15:46:17;4.60;99.90
7654;DHT22;3869;48.406;10.774;2023-02-04T15:48:45;4.50;99.90
7654;DHT22;3869;48.406;10.774;2023-02-04T15:51:15;4.40;99.90
7654;DHT22;3869;48.406;10.774;2023-02-04T15:53:43;4.40;99.90
7654;DHT22;3869;48.406;10.774;2023-02-04T15:56:11;4.40;99.90
7654;DHT22;3869;48.406;10.774;2023-02-04T15:58:39;4.30;99.90
7654;DHT22;3869;48.406;10.774;2023-02-04T16:01:07;4.20;99.90
7654;DHT22;3869;48.406;10.774;2023-02-04T16:03:35;4.10;99.90
7654;DHT22;3869;48.406;10.774;2023-02-04T16:06:03;4.10;99.90
7654;DHT22;3869;48.406;10.774;2023-02-04T16:08:33;4.10;99.90
7654;DHT22;3869;48.406;10.774;2023-02-04T16:11:01;4.10;99.90
7654;DHT22;3869;48.406;10.774;2023-02-04T16:13:31;4.00;99.90